sensor_id;sensor_type;location;lat;lon;timestamp;temperature;humidity
7572;DHT22;3827;49.928;8.548;2023-07-13T00:00:02;18.20;99.90
7572;DHT22;3827;49.928;8.548;2023-07-13T00:02:31;18.30;99.90
7572;DHT22;3827;49.928;8.548;2023-07-13T00:04:58;18.30;99.90
7572;DHT22;3827;49.928;8.548;2023-07-13T00:07:25;18.30;99.90
7572;DHT22;3827;49.928;8.548;2023-07-13T00:09:51;18.40;99.90
7572;DHT22;3827;49.928;8.548;2023-07-13T00:12:26;18.40;99.90
7572;DHT22;3827;49.928;8.548;2023-07-13T00:14:55;18.30;99.90
7572;DHT22;3827;49.928;8.548;2023-07-13T00:17:22;18.30;99.90
7572;DHT22;3827;49.928;8.548;2023-07-13T00:19:49;18.20;99.90
7572;DHT22;3827;49.928;8.548;2023-07-13T00:22:16;18.20;99.90
7572;DHT22;3827;49.928;8.548;2023-07-13T00:24:43;18.10;99.90
7572;DHT22;3827;49.928;8.548;2023-07-13T00:27:10;18.00;99.90
7572;DHT22;3827;49.928;8.548;2023-07-13T00:29:38;18.00;99.90
7572;DHT22;3827;49.928;8.548;2023-07-13T00:32:06;17.80;99.90
7572;DHT22;3827;49.928;8.548;2023-07-13T00:34:35;17.80;99.90
7572;DHT22;3827;49.928;8.548;2023-07-13T00:37:01;17.80;99.90
7572;DHT22;3827;49.928;8.548;2023-07-13T00:39:28;17.70;99.90
7572;DHT22;3827;49.928;8.548;2023-07-13T00:41:55;17.60;99.90
7572;DHT22;3827;49.928;8.548;2023-07-13T00:44:22;17.50;99.90
7572;DHT22;3827;49.928;8.548;2023-07-13T00:46:50;17.40;99.90
7572;DHT22;3827;49.928;8.548;2023-07-13T00:49:20;17.30;99.90
7572;DHT22;3827;49.928;8.548;2023-07-13T00:51:49;17.30;99.90
7572;DHT22;3827;49.928;8.548;2023-07-13T00:54:20;17.60;99.90
7572;DHT22;3827;49.928;8.548;2023-07-13T00:56:50;17.30;99.90
7572;DHT22;3827;49.928;8.548;2023-07-13T00:59:18;17.30;99.90
7572;DHT22;3827;49.928;8.548;2023-07-13T01:01:46;17.30;99.90
7572;DHT22;3827;49.928;8.548;2023-07-13T01:04:15;17.30;99.90
7572;DHT22;3827;49.928;8.548;2023-07-13T01:06:42;17.20;99.90
7572;DHT22;3827;49.928;8.548;2023-07-13T01:09:11;17.20;99.90
7572;DHT22;3827;49.928;8.548;2023-07-13T01:11:38;17.20;99.90
7572;DHT22;3827;49.928;8.548;2023-07-13T01:14:05;17.20;99.90
7572;DHT22;3827;49.928;8.548;2023-07-13T01:16:34;17.20;99.90
7572;DHT22;3827;49.928;8.548;2023-07-13T01:19:01;17.20;99.90
7572;DHT22;3827;49.928;8.548;2023-07-13T01:21:32;17.10;99.90
7572;DHT22;3827;49.928;8.548;2023-07-13T01:24:00;17.00;99.90
7572;DHT22;3827;49.928;8.548;2023-07-13T01:26:27;17.00;99.90
7572;DHT22;3827;49.928;8.548;2023-07-13T01:28:54;17.00;99.90
7572;DHT22;3827;49.928;8.548;2023-07-13T01:31:22;17.00;99.90
7572;DHT22;3827;49.928;8.548;2023-07-13T01:33:49;16.90;99.90
7572;DHT22;3827;49.928;8.548;2023-07-13T01:36:16;16.90;99.90
7572;DHT22;3827;49.928;8.548;2023-07-13T01:38:44;16.90;99.90
7572;DHT22;3827;49.928;8.548;2023-07-13T01:41:11;16.90;99.90
7572;DHT22;3827;49.928;8.548;2023-07-13T01:43:38;16.80;99.90
7572;DHT22;3827;49.928;8.548;2023-07-13T01:46:07;16.70;99.90
7572;DHT22;3827;49.928;8.548;2023-07-13T01:48:34;16.70;99.90
7572;DHT22;3827;49.928;8.548;2023-07-13T01:51:00;16.80;99.90
7572;DHT22;3827;49.928;8.548;2023-07-13T01:53:27;16.50;99.90
7572;DHT22;3827;49.928;8.548;2023-07-13T01:55:55;16.40;99.90
7572;DHT22;3827;49.928;8.548;2023-07-13T01:58:22;16.10;99.90
7572;DHT22;3827;49.928;8.548;2023-07-13T02:00:49;15.90;99.90
7572;DHT22;3827;49.928;8.548;2023-07-13T02:03:16;15.80;99.90
7572;DHT22;3827;49.928;8.548;2023-07-13T02:05:43;15.80;99.90
7572;DHT22;3827;49.928;8.548;2023-07-13T02:08:10;15.70;99.90
7572;DHT22;3827;49.928;8.548;2023-07-13T02:10:37;15.60;99.90
7572;DHT22;3827;49.928;8.548;2023-07-13T02:13:06;15.70;99.90
7572;DHT22;3827;49.928;8.548;2023-07-13T02:15:33;15.70;99.90
7572;DHT22;3827;49.928;8.548;2023-07-13T02:17:59;15.80;99.90
7572;DHT22;3827;49.928;8.548;2023-07-13T02:20:26;15.80;99.90
7572;DHT22;3827;49.928;8.548;2023-07-13T02:22:53;15.90;99.90
7572;DHT22;3827;49.928;8.548;2023-07-13T02:25:20;15.80;99.90
7572;DHT22;3827;49.928;8.548;2023-07-13T02:27:46;16.10;99.90
7572;DHT22;3827;49.928;8.548;2023-07-13T02:30:14;15.70;99.90
7572;DHT22;3827;49.928;8.548;2023-07-13T02:32:41;15.60;99.90
7572;DHT22;3827;49.928;8.548;2023-07-13T02:35:09;15.60;99.90
7572;DHT22;3827;49.928;8.548;2023-07-13T02:37:36;15.60;99.90
7572;DHT22;3827;49.928;8.548;2023-07-13T02:40:03;15.60;99.90
7572;DHT22;3827;49.928;8.548;2023-07-13T02:42:33;15.70;99.90
7572;DHT22;3827;49.928;8.548;2023-07-13T02:45:00;16.30;99.90
7572;DHT22;3827;49.928;8.548;2023-07-13T02:47:28;15.80;99.90
7572;DHT22;3827;49.928;8.548;2023-07-13T02:49:55;15.80;99.90
7572;DHT22;3827;49.928;8.548;2023-07-13T02:52:22;15.70;99.90
7572;DHT22;3827;49.928;8.548;2023-07-13T02:54:49;15.70;99.90
7572;DHT22;3827;49.928;8.548;2023-07-13T02:57:15;15.70;99.90
7572;DHT22;3827;49.928;8.548;2023-07-13T02:59:42;15.60;99.90
7572;DHT22;3827;49.928;8.548;2023-07-13T03:02:09;15.50;99.90
7572;DHT22;3827;49.928;8.548;2023-07-13T03:04:37;15.60;99.90
7572;DHT22;3827;49.928;8.548;2023-07-13T03:07:05;15.50;99.90
7572;DHT22;3827;49.928;8.548;2023-07-13T03:09:35;15.50;99.90
7572;DHT22;3827;49.928;8.548;2023-07-13T03:12:02;15.50;99.90
7572;DHT22;3827;49.928;8.548;2023-07-13T03:14:29;15.40;99.90
7572;DHT22;3827;49.928;8.548;2023-07-13T03:16:56;15.40;99.90
7572;DHT22;3827;49.928;8.548;2023-07-13T03:19:23;15.30;99.90
7572;DHT22;3827;49.928;8.548;2023-07-13T03:21:51;15.50;99.90
7572;DHT22;3827;49.928;8.548;2023-07-13T03:24:17;15.20;99.90
7572;DHT22;3827;49.928;8.548;2023-07-13T03:26:44;15.20;99.90
7572;DHT22;3827;49.928;8.548;2023-07-13T03:29:11;15.20;99.90
7572;DHT22;3827;49.928;8.548;2023-07-13T03:31:38;15.20;99.90
7572;DHT22;3827;49.928;8.548;2023-07-13T03:34:04;15.20;99.90
7572;DHT22;3827;49.928;8.548;2023-07-13T03:36:32;15.20;99.90
7572;DHT22;3827;49.928;8.548;2023-07-13T03:39:01;15.20;99.90
7572;DHT22;3827;49.928;8.548;2023-07-13T03:41:28;15.20;99.90
7572;DHT22;3827;49.928;8.548;2023-07-13T03:43:56;15.10;99.90
7572;DHT22;3827;49.928;8.548;2023-07-13T03:46:22;15.00;99.90
7572;DHT22;3827;49.928;8.548;2023-07-13T03:48:49;15.00;99.90
7572;DHT22;3827;49.928;8.548;2023-07-13T03:51:17;15.00;99.90
7572;DHT22;3827;49.928;8.548;2023-07-13T03:53:45;14.90;99.90
7572;DHT22;3827;49.928;8.548;2023-07-13T03:56:14;15.60;99.90
7572;DHT22;3827;49.928;8.548;2023-07-13T03:58:42;14.90;99.90
7572;DHT22;3827;49.928;8.548;2023-07-13T04:01:11;14.90;99.90
7572;DHT22;3827;49.928;8.548;2023-07-13T04:03:38;15.60;99.90
7572;DHT22;3827;49.928;8.548;2023-07-13T04:06:07;14.70;99.90
7572;DHT22;3827;49.928;8.548;2023-07-13T04:08:38;14.80;99.90
7572;DHT22;3827;49.928;8.548;2023-07-13T04:11:05;14.80;99.90
7572;DHT22;3827;49.928;8.548;2023-07-13T04:13:33;14.80;99.90
7572;DHT22;3827;49.928;8.548;2023-07-13T04:16:00;14.90;99.90
7572;DHT22;3827;49.928;8.548;2023-07-13T04:18:27;14.80;99.90
7572;DHT22;3827;49.928;8.548;2023-07-13T04:20:54;14.80;99.90
7572;DHT22;3827;49.928;8.548;2023-07-13T04:23:30;14.80;99.90
7572;DHT22;3827;49.928;8.548;2023-07-13T04:26:09;14.70;99.90
7572;DHT22;3827;49.928;8.548;2023-07-13T04:28:38;14.70;99.90
7572;DHT22;3827;49.928;8.548;2023-07-13T04:31:05;14.80;99.90
7572;DHT22;3827;49.928;8.548;2023-07-13T04:33:32;14.80;99.90
7572;DHT22;3827;49.928;8.548;2023-07-13T04:35:59;14.90;99.90
7572;DHT22;3827;49.928;8.548;2023-07-13T04:38:29;14.90;99.90
7572;DHT22;3827;49.928;8.548;2023-07-13T04:40:57;14.90;99.90
7572;DHT22;3827;49.928;8.548;2023-07-13T04:43:24;15.00;99.90
7572;DHT22;3827;49.928;8.548;2023-07-13T04:45:52;15.00;99.90
7572;DHT22;3827;49.928;8.548;2023-07-13T04:48:20;15.10;99.90
7572;DHT22;3827;49.928;8.548;2023-07-13T04:50:47;15.20;99.90
7572;DHT22;3827;49.928;8.548;2023-07-13T04:53:14;15.30;99.90
7572;DHT22;3827;49.928;8.548;2023-07-13T04:55:41;15.30;99.90
7572;DHT22;3827;49.928;8.548;2023-07-13T04:58:08;15.40;99.90
7572;DHT22;3827;49.928;8.548;2023-07-13T05:00:34;15.50;99.90
7572;DHT22;3827;49.928;8.548;2023-07-13T05:03:02;15.60;99.90
7572;DHT22;3827;49.928;8.548;2023-07-13T05:05:29;15.70;99.90
7572;DHT22;3827;49.928;8.548;2023-07-13T05:07:56;15.80;99.90
7572;DHT22;3827;49.928;8.548;2023-07-13T05:10:23;15.90;99.90
7572;DHT22;3827;49.928;8.548;2023-07-13T05:12:50;16.00;99.90
7572;DHT22;3827;49.928;8.548;2023-07-13T05:15:17;16.00;99.90
7572;DHT22;3827;49.928;8.548;2023-07-13T05:17:46;16.40;99.90
7572;DHT22;3827;49.928;8.548;2023-07-13T05:20:15;16.30;99.90
7572;DHT22;3827;49.928;8.548;2023-07-13T05:22:42;16.40;99.90
7572;DHT22;3827;49.928;8.548;2023-07-13T05:25:09;16.50;99.90
7572;DHT22;3827;49.928;8.548;2023-07-13T05:27:37;16.60;99.90
7572;DHT22;3827;49.928;8.548;2023-07-13T05:30:05;16.70;99.90
7572;DHT22;3827;49.928;8.548;2023-07-13T05:32:33;16.70;99.90
7572;DHT22;3827;49.928;8.548;2023-07-13T05:35:00;16.70;99.90
7572;DHT22;3827;49.928;8.548;2023-07-13T05:37:28;16.80;99.90
7572;DHT22;3827;49.928;8.548;2023-07-13T05:39:55;16.90;99.90
7572;DHT22;3827;49.928;8.548;2023-07-13T05:42:21;17.60;99.90
7572;DHT22;3827;49.928;8.548;2023-07-13T05:44:48;17.10;99.90
7572;DHT22;3827;49.928;8.548;2023-07-13T05:47:15;17.30;99.90
7572;DHT22;3827;49.928;8.548;2023-07-13T05:49:41;17.40;99.90
7572;DHT22;3827;49.928;8.548;2023-07-13T05:52:08;17.50;99.90
7572;DHT22;3827;49.928;8.548;2023-07-13T05:54:36;17.70;99.90
7572;DHT22;3827;49.928;8.548;2023-07-13T05:57:04;17.80;99.90
7572;DHT22;3827;49.928;8.548;2023-07-13T05:59:30;17.90;99.90
7572;DHT22;3827;49.928;8.548;2023-07-13T06:01:57;18.00;99.90
7572;DHT22;3827;49.928;8.548;2023-07-13T06:04:24;18.10;99.90
7572;DHT22;3827;49.928;8.548;2023-07-13T06:06:51;18.10;99.90
7572;DHT22;3827;49.928;8.548;2023-07-13T06:09:17;18.20;99.90
7572;DHT22;3827;49.928;8.548;2023-07-13T06:11:45;18.30;99.90
7572;DHT22;3827;49.928;8.548;2023-07-13T06:14:12;18.30;99.90
7572;DHT22;3827;49.928;8.548;2023-07-13T06:16:39;18.30;99.90
7572;DHT22;3827;49.928;8.548;2023-07-13T06:19:06;18.40;99.90
7572;DHT22;3827;49.928;8.548;2023-07-13T06:21:33;18.50;99.90
7572;DHT22;3827;49.928;8.548;2023-07-13T06:24:00;18.60;99.90
7572;DHT22;3827;49.928;8.548;2023-07-13T06:26:27;18.70;99.90
7572;DHT22;3827;49.928;8.548;2023-07-13T06:28:55;18.80;99.90
7572;DHT22;3827;49.928;8.548;2023-07-13T06:31:22;18.80;99.90
7572;DHT22;3827;49.928;8.548;2023-07-13T06:33:49;18.90;99.90
7572;DHT22;3827;49.928;8.548;2023-07-13T06:36:15;19.00;99.90
7572;DHT22;3827;49.928;8.548;2023-07-13T06:38:42;19.10;99.90
7572;DHT22;3827;49.928;8.548;2023-07-13T06:41:09;19.00;99.90
7572;DHT22;3827;49.928;8.548;2023-07-13T06:43:36;19.30;99.90
7572;DHT22;3827;49.928;8.548;2023-07-13T06:46:04;19.50;99.90
7572;DHT22;3827;49.928;8.548;2023-07-13T06:48:30;19.50;99.90
7572;DHT22;3827;49.928;8.548;2023-07-13T06:50:57;19.60;99.90
7572;DHT22;3827;49.928;8.548;2023-07-13T06:53:24;20.00;99.90
7572;DHT22;3827;49.928;8.548;2023-07-13T06:55:51;19.80;99.90
7572;DHT22;3827;49.928;8.548;2023-07-13T06:58:18;19.90;99.90
7572;DHT22;3827;49.928;8.548;2023-07-13T07:00:46;19.90;99.90
7572;DHT22;3827;49.928;8.548;2023-07-13T07:03:14;20.10;99.90
7572;DHT22;3827;49.928;8.548;2023-07-13T07:05:41;20.20;99.90
7572;DHT22;3827;49.928;8.548;2023-07-13T07:08:07;20.10;99.90
7572;DHT22;3827;49.928;8.548;2023-07-13T07:10:35;20.20;99.90
7572;DHT22;3827;49.928;8.548;2023-07-13T07:13:02;20.20;99.90
7572;DHT22;3827;49.928;8.548;2023-07-13T07:15:29;20.30;99.90
7572;DHT22;3827;49.928;8.548;2023-07-13T07:17:56;20.40;99.90
7572;DHT22;3827;49.928;8.548;2023-07-13T07:20:24;20.50;99.90
7572;DHT22;3827;49.928;8.548;2023-07-13T07:22:51;20.70;99.90
7572;DHT22;3827;49.928;8.548;2023-07-13T07:25:18;20.70;99.90
7572;DHT22;3827;49.928;8.548;2023-07-13T07:27:45;20.80;99.90
7572;DHT22;3827;49.928;8.548;2023-07-13T07:30:12;20.90;99.90
7572;DHT22;3827;49.928;8.548;2023-07-13T07:32:40;20.90;99.90
7572;DHT22;3827;49.928;8.548;2023-07-13T07:35:08;20.70;99.90
7572;DHT22;3827;49.928;8.548;2023-07-13T07:37:36;20.60;99.90
7572;DHT22;3827;49.928;8.548;2023-07-13T07:40:04;20.70;99.90
7572;DHT22;3827;49.928;8.548;2023-07-13T07:42:31;21.00;99.90
7572;DHT22;3827;49.928;8.548;2023-07-13T07:44:58;21.00;99.90
7572;DHT22;3827;49.928;8.548;2023-07-13T07:47:26;21.00;99.90
7572;DHT22;3827;49.928;8.548;2023-07-13T07:49:53;20.80;99.90
7572;DHT22;3827;49.928;8.548;2023-07-13T07:52:19;21.10;99.90
7572;DHT22;3827;49.928;8.548;2023-07-13T07:54:47;21.10;99.90
7572;DHT22;3827;49.928;8.548;2023-07-13T07:57:14;21.10;99.90
7572;DHT22;3827;49.928;8.548;2023-07-13T07:59:41;21.20;99.90
7572;DHT22;3827;49.928;8.548;2023-07-13T08:02:09;21.20;99.90
7572;DHT22;3827;49.928;8.548;2023-07-13T08:04:37;21.20;99.90
7572;DHT22;3827;49.928;8.548;2023-07-13T08:07:04;21.30;99.90
7572;DHT22;3827;49.928;8.548;2023-07-13T08:09:30;21.50;99.90
7572;DHT22;3827;49.928;8.548;2023-07-13T08:11:59;22.00;99.90
7572;DHT22;3827;49.928;8.548;2023-07-13T08:14:25;22.30;99.90
7572;DHT22;3827;49.928;8.548;2023-07-13T08:16:52;21.90;99.90
7572;DHT22;3827;49.928;8.548;2023-07-13T08:19:19;22.00;99.90
7572;DHT22;3827;49.928;8.548;2023-07-13T08:21:46;22.40;99.90
7572;DHT22;3827;49.928;8.548;2023-07-13T08:24:14;22.30;99.90
7572;DHT22;3827;49.928;8.548;2023-07-13T08:26:40;22.50;99.90
7572;DHT22;3827;49.928;8.548;2023-07-13T08:29:08;22.70;99.90
7572;DHT22;3827;49.928;8.548;2023-07-13T08:31:35;22.70;99.90
7572;DHT22;3827;49.928;8.548;2023-07-13T08:34:02;22.70;99.90
7572;DHT22;3827;49.928;8.548;2023-07-13T08:36:29;22.60;99.90
7572;DHT22;3827;49.928;8.548;2023-07-13T08:38:56;22.10;99.90
7572;DHT22;3827;49.928;8.548;2023-07-13T08:41:23;23.10;99.90
7572;DHT22;3827;49.928;8.548;2023-07-13T08:43:52;22.80;99.90
7572;DHT22;3827;49.928;8.548;2023-07-13T08:46:26;22.70;99.90
7572;DHT22;3827;49.928;8.548;2023-07-13T08:48:57;22.80;99.90
7572;DHT22;3827;49.928;8.548;2023-07-13T08:51:33;22.80;99.90
7572;DHT22;3827;49.928;8.548;2023-07-13T08:54:03;23.30;99.90
7572;DHT22;3827;49.928;8.548;2023-07-13T08:56:32;23.70;99.90
7572;DHT22;3827;49.928;8.548;2023-07-13T08:59:05;23.90;99.90
7572;DHT22;3827;49.928;8.548;2023-07-13T09:01:53;23.80;99.90
7572;DHT22;3827;49.928;8.548;2023-07-13T09:04:25;23.50;99.90
7572;DHT22;3827;49.928;8.548;2023-07-13T09:07:00;23.80;99.90
7572;DHT22;3827;49.928;8.548;2023-07-13T09:09:40;23.50;99.90
7572;DHT22;3827;49.928;8.548;2023-07-13T09:12:16;23.80;99.90
7572;DHT22;3827;49.928;8.548;2023-07-13T09:14:47;24.10;99.90
7572;DHT22;3827;49.928;8.548;2023-07-13T09:17:19;23.60;99.90
7572;DHT22;3827;49.928;8.548;2023-07-13T09:19:52;23.40;99.90
7572;DHT22;3827;49.928;8.548;2023-07-13T09:22:21;23.30;99.90
7572;DHT22;3827;49.928;8.548;2023-07-13T09:24:55;23.40;99.90
7572;DHT22;3827;49.928;8.548;2023-07-13T09:27:29;24.00;99.90
7572;DHT22;3827;49.928;8.548;2023-07-13T09:30:02;24.40;99.90
7572;DHT22;3827;49.928;8.548;2023-07-13T09:32:33;24.90;99.90
7572;DHT22;3827;49.928;8.548;2023-07-13T09:35:00;25.20;99.90
7572;DHT22;3827;49.928;8.548;2023-07-13T09:37:30;24.60;99.90
7572;DHT22;3827;49.928;8.548;2023-07-13T09:39:58;24.40;99.90
7572;DHT22;3827;49.928;8.548;2023-07-13T09:42:26;24.80;99.90
7572;DHT22;3827;49.928;8.548;2023-07-13T09:44:55;24.10;99.90
7572;DHT22;3827;49.928;8.548;2023-07-13T09:47:24;24.20;99.90
7572;DHT22;3827;49.928;8.548;2023-07-13T09:49:59;24.50;99.90
7572;DHT22;3827;49.928;8.548;2023-07-13T09:52:27;24.80;99.90
7572;DHT22;3827;49.928;8.548;2023-07-13T09:54:55;24.30;99.90
7572;DHT22;3827;49.928;8.548;2023-07-13T09:57:27;24.60;99.90
7572;DHT22;3827;49.928;8.548;2023-07-13T09:59:55;24.40;99.90
7572;DHT22;3827;49.928;8.548;2023-07-13T10:02:26;24.10;99.90
7572;DHT22;3827;49.928;8.548;2023-07-13T10:04:58;24.40;99.90
7572;DHT22;3827;49.928;8.548;2023-07-13T10:07:25;24.30;99.90
7572;DHT22;3827;49.928;8.548;2023-07-13T10:09:53;24.60;99.90
7572;DHT22;3827;49.928;8.548;2023-07-13T10:12:21;24.70;99.90
7572;DHT22;3827;49.928;8.548;2023-07-13T10:14:51;25.10;99.90
7572;DHT22;3827;49.928;8.548;2023-07-13T10:17:26;24.90;99.90
7572;DHT22;3827;49.928;8.548;2023-07-13T10:19:59;24.10;99.90
7572;DHT22;3827;49.928;8.548;2023-07-13T10:22:37;24.80;99.90
7572;DHT22;3827;49.928;8.548;2023-07-13T10:25:14;25.80;99.90
7572;DHT22;3827;49.928;8.548;2023-07-13T10:27:43;26.30;99.90
7572;DHT22;3827;49.928;8.548;2023-07-13T10:30:14;26.30;99.90
7572;DHT22;3827;49.928;8.548;2023-07-13T10:32:43;26.00;99.90
7572;DHT22;3827;49.928;8.548;2023-07-13T10:35:14;25.40;99.90
7572;DHT22;3827;49.928;8.548;2023-07-13T10:37:47;25.90;99.90
7572;DHT22;3827;49.928;8.548;2023-07-13T10:40:19;25.60;99.90
7572;DHT22;3827;49.928;8.548;2023-07-13T10:42:50;26.00;99.90
7572;DHT22;3827;49.928;8.548;2023-07-13T10:45:20;25.50;99.90
7572;DHT22;3827;49.928;8.548;2023-07-13T10:47:47;25.60;99.90
7572;DHT22;3827;49.928;8.548;2023-07-13T10:50:19;24.90;99.90
7572;DHT22;3827;49.928;8.548;2023-07-13T10:52:48;25.60;99.90
7572;DHT22;3827;49.928;8.548;2023-07-13T10:55:33;26.20;99.90
7572;DHT22;3827;49.928;8.548;2023-07-13T10:58:02;27.20;99.90
7572;DHT22;3827;49.928;8.548;2023-07-13T11:00:32;27.40;99.90
7572;DHT22;3827;49.928;8.548;2023-07-13T11:03:14;27.20;99.90
7572;DHT22;3827;49.928;8.548;2023-07-13T11:05:43;25.30;99.90
7572;DHT22;3827;49.928;8.548;2023-07-13T11:08:18;25.20;99.90
7572;DHT22;3827;49.928;8.548;2023-07-13T11:10:48;26.30;99.90
7572;DHT22;3827;49.928;8.548;2023-07-13T11:13:55;26.50;99.90
7572;DHT22;3827;49.928;8.548;2023-07-13T11:16:43;26.20;99.90
7572;DHT22;3827;49.928;8.548;2023-07-13T11:19:39;27.70;99.90
7572;DHT22;3827;49.928;8.548;2023-07-13T11:22:14;28.00;99.90
7572;DHT22;3827;49.928;8.548;2023-07-13T11:24:51;28.20;99.90
7572;DHT22;3827;49.928;8.548;2023-07-13T11:27:30;26.90;99.90
7572;DHT22;3827;49.928;8.548;2023-07-13T11:30:31;26.40;99.90
7572;DHT22;3827;49.928;8.548;2023-07-13T11:33:12;26.50;99.90
7572;DHT22;3827;49.928;8.548;2023-07-13T11:35:49;26.00;99.90
7572;DHT22;3827;49.928;8.548;2023-07-13T11:38:20;25.80;99.90
7572;DHT22;3827;49.928;8.548;2023-07-13T11:40:48;25.70;99.90
7572;DHT22;3827;49.928;8.548;2023-07-13T11:43:16;26.10;99.90
7572;DHT22;3827;49.928;8.548;2023-07-13T11:45:44;25.50;99.90
7572;DHT22;3827;49.928;8.548;2023-07-13T11:48:19;25.40;99.90
7572;DHT22;3827;49.928;8.548;2023-07-13T11:50:54;26.00;99.90
7572;DHT22;3827;49.928;8.548;2023-07-13T11:53:26;25.60;99.90
7572;DHT22;3827;49.928;8.548;2023-07-13T11:55:54;25.30;99.90
7572;DHT22;3827;49.928;8.548;2023-07-13T11:58:23;24.50;99.90
7572;DHT22;3827;49.928;8.548;2023-07-13T12:00:51;24.40;99.90
7572;DHT22;3827;49.928;8.548;2023-07-13T12:03:20;24.30;99.90
7572;DHT22;3827;49.928;8.548;2023-07-13T12:06:00;24.70;99.90
7572;DHT22;3827;49.928;8.548;2023-07-13T12:08:29;24.90;99.90
7572;DHT22;3827;49.928;8.548;2023-07-13T12:11:00;24.70;99.90
7572;DHT22;3827;49.928;8.548;2023-07-13T12:13:36;25.00;99.90
7572;DHT22;3827;49.928;8.548;2023-07-13T12:16:12;25.50;99.90
7572;DHT22;3827;49.928;8.548;2023-07-13T12:18:40;26.00;99.90
7572;DHT22;3827;49.928;8.548;2023-07-13T12:21:12;26.00;99.90
7572;DHT22;3827;49.928;8.548;2023-07-13T12:23:43;25.40;99.90
7572;DHT22;3827;49.928;8.548;2023-07-13T12:26:11;25.30;99.90
7572;DHT22;3827;49.928;8.548;2023-07-13T12:28:43;25.90;99.90
7572;DHT22;3827;49.928;8.548;2023-07-13T12:31:24;26.80;99.90
7572;DHT22;3827;49.928;8.548;2023-07-13T12:33:56;26.50;99.90
7572;DHT22;3827;49.928;8.548;2023-07-13T12:36:23;25.60;99.90
7572;DHT22;3827;49.928;8.548;2023-07-13T12:38:52;25.60;99.90
7572;DHT22;3827;49.928;8.548;2023-07-13T12:41:19;25.80;99.90
7572;DHT22;3827;49.928;8.548;2023-07-13T12:43:46;25.70;99.90
7572;DHT22;3827;49.928;8.548;2023-07-13T12:46:18;25.90;99.90
7572;DHT22;3827;49.928;8.548;2023-07-13T12:48:49;25.50;99.90
7572;DHT22;3827;49.928;8.548;2023-07-13T12:51:16;25.90;99.90
7572;DHT22;3827;49.928;8.548;2023-07-13T12:53:48;25.70;99.90
7572;DHT22;3827;49.928;8.548;2023-07-13T12:56:21;25.30;99.90
7572;DHT22;3827;49.928;8.548;2023-07-13T12:58:50;25.60;99.90
7572;DHT22;3827;49.928;8.548;2023-07-13T13:01:21;25.20;99.90
7572;DHT22;3827;49.928;8.548;2023-07-13T13:03:52;25.40;99.90
7572;DHT22;3827;49.928;8.548;2023-07-13T13:06:23;25.20;99.90
7572;DHT22;3827;49.928;8.548;2023-07-13T13:08:52;25.10;99.90
7572;DHT22;3827;49.928;8.548;2023-07-13T13:11:22;25.10;99.90
7572;DHT22;3827;49.928;8.548;2023-07-13T13:13:50;24.90;99.90
7572;DHT22;3827;49.928;8.548;2023-07-13T13:16:20;24.90;99.90
7572;DHT22;3827;49.928;8.548;2023-07-13T13:18:48;26.00;99.90
7572;DHT22;3827;49.928;8.548;2023-07-13T13:21:16;26.30;99.90
7572;DHT22;3827;49.928;8.548;2023-07-13T13:23:44;26.40;99.90
7572;DHT22;3827;49.928;8.548;2023-07-13T13:26:13;26.50;99.90
7572;DHT22;3827;49.928;8.548;2023-07-13T13:28:42;26.00;99.90
7572;DHT22;3827;49.928;8.548;2023-07-13T13:31:09;25.60;99.90
7572;DHT22;3827;49.928;8.548;2023-07-13T13:33:39;25.10;99.90
7572;DHT22;3827;49.928;8.548;2023-07-13T13:36:13;25.40;99.90
7572;DHT22;3827;49.928;8.548;2023-07-13T13:38:41;25.30;99.90
7572;DHT22;3827;49.928;8.548;2023-07-13T13:41:09;25.20;99.90
7572;DHT22;3827;49.928;8.548;2023-07-13T13:43:36;25.50;99.90
7572;DHT22;3827;49.928;8.548;2023-07-13T13:46:14;25.60;99.90
7572;DHT22;3827;49.928;8.548;2023-07-13T13:48:41;25.70;99.90
7572;DHT22;3827;49.928;8.548;2023-07-13T13:51:14;26.40;99.90
7572;DHT22;3827;49.928;8.548;2023-07-13T13:53:41;26.30;99.90
7572;DHT22;3827;49.928;8.548;2023-07-13T13:56:08;25.90;99.90
7572;DHT22;3827;49.928;8.548;2023-07-13T13:58:35;26.20;99.90
7572;DHT22;3827;49.928;8.548;2023-07-13T14:01:02;26.30;99.90
7572;DHT22;3827;49.928;8.548;2023-07-13T14:03:32;26.30;99.90
7572;DHT22;3827;49.928;8.548;2023-07-13T14:05:59;26.00;99.90
7572;DHT22;3827;49.928;8.548;2023-07-13T14:08:26;25.70;99.90
7572;DHT22;3827;49.928;8.548;2023-07-13T14:10:56;25.80;99.90
7572;DHT22;3827;49.928;8.548;2023-07-13T14:13:34;25.20;99.90
7572;DHT22;3827;49.928;8.548;2023-07-13T14:16:04;25.70;99.90
7572;DHT22;3827;49.928;8.548;2023-07-13T14:18:36;25.80;99.90
7572;DHT22;3827;49.928;8.548;2023-07-13T14:21:11;26.50;99.90
7572;DHT22;3827;49.928;8.548;2023-07-13T14:23:37;27.30;99.90
7572;DHT22;3827;49.928;8.548;2023-07-13T14:26:09;27.60;99.90
7572;DHT22;3827;49.928;8.548;2023-07-13T14:28:39;27.50;99.90
7572;DHT22;3827;49.928;8.548;2023-07-13T14:31:07;26.60;99.90
7572;DHT22;3827;49.928;8.548;2023-07-13T14:33:35;26.40;99.90
7572;DHT22;3827;49.928;8.548;2023-07-13T14:36:03;26.10;99.90
7572;DHT22;3827;49.928;8.548;2023-07-13T14:38:31;25.60;99.90
7572;DHT22;3827;49.928;8.548;2023-07-13T14:40:58;25.00;99.90
7572;DHT22;3827;49.928;8.548;2023-07-13T14:43:25;25.00;99.90
7572;DHT22;3827;49.928;8.548;2023-07-13T14:45:53;24.90;99.90
7572;DHT22;3827;49.928;8.548;2023-07-13T14:48:23;25.20;99.90
7572;DHT22;3827;49.928;8.548;2023-07-13T14:50:55;25.70;99.90
7572;DHT22;3827;49.928;8.548;2023-07-13T14:53:22;25.80;99.90
7572;DHT22;3827;49.928;8.548;2023-07-13T14:55:49;25.60;99.90
7572;DHT22;3827;49.928;8.548;2023-07-13T14:58:16;25.00;99.90
7572;DHT22;3827;49.928;8.548;2023-07-13T15:00:43;24.70;99.90
7572;DHT22;3827;49.928;8.548;2023-07-13T15:03:18;24.30;99.90
7572;DHT22;3827;49.928;8.548;2023-07-13T15:05:47;24.10;99.90
7572;DHT22;3827;49.928;8.548;2023-07-13T15:08:16;24.10;99.90
7572;DHT22;3827;49.928;8.548;2023-07-13T15:10:43;23.90;99.90
7572;DHT22;3827;49.928;8.548;2023-07-13T15:13:15;23.70;99.90
7572;DHT22;3827;49.928;8.548;2023-07-13T15:15:45;23.80;99.90
7572;DHT22;3827;49.928;8.548;2023-07-13T15:18:14;24.00;99.90
7572;DHT22;3827;49.928;8.548;2023-07-13T15:20:43;24.10;99.90
7572;DHT22;3827;49.928;8.548;2023-07-13T15:23:11;24.40;99.90
7572;DHT22;3827;49.928;8.548;2023-07-13T15:25:40;24.60;99.90
7572;DHT22;3827;49.928;8.548;2023-07-13T15:28:07;24.60;99.90
7572;DHT22;3827;49.928;8.548;2023-07-13T15:30:40;24.40;99.90
7572;DHT22;3827;49.928;8.548;2023-07-13T15:33:11;24.40;99.90
7572;DHT22;3827;49.928;8.548;2023-07-13T15:35:39;24.30;99.90
7572;DHT22;3827;49.928;8.548;2023-07-13T15:38:18;24.40;99.90
7572;DHT22;3827;49.928;8.548;2023-07-13T15:40:47;24.20;99.90
7572;DHT22;3827;49.928;8.548;2023-07-13T15:43:15;24.40;99.90
7572;DHT22;3827;49.928;8.548;2023-07-13T15:45:43;24.20;99.90
7572;DHT22;3827;49.928;8.548;2023-07-13T15:48:16;24.60;99.90
7572;DHT22;3827;49.928;8.548;2023-07-13T15:50:45;24.10;99.90
7572;DHT22;3827;49.928;8.548;2023-07-13T15:53:24;24.30;99.90
7572;DHT22;3827;49.928;8.548;2023-07-13T15:55:52;24.40;99.90
7572;DHT22;3827;49.928;8.548;2023-07-13T15:58:19;24.60;99.90
7572;DHT22;3827;49.928;8.548;2023-07-13T16:00:46;24.60;99.90
7572;DHT22;3827;49.928;8.548;2023-07-13T16:03:15;24.50;99.90
7572;DHT22;3827;49.928;8.548;2023-07-13T16:05:42;24.60;99.90
7572;DHT22;3827;49.928;8.548;2023-07-13T16:08:19;24.60;99.90
7572;DHT22;3827;49.928;8.548;2023-07-13T16:10:47;24.70;99.90
7572;DHT22;3827;49.928;8.548;2023-07-13T16:13:16;26.10;99.90